Pep, Texas
Current Conditions -  °F | °C
As of 7:53 AM on Thursday 30 Oct 2014 (Local Time) from KLBB Reporting Station
Few Clouds Few Clouds  
Wind Chill: 44°   Ceiling: Unl
Heat Index: 47°   Visibility: 10mi
Dew Point: 44°   Wind: 7mph
Humidity: 90%   Direction: 300°WNW
Pressure: 30.12"   Gusts: NA
Location:  33.81°N, 102.56°W
Report Text: KLBB 301253Z 30006KT 10SM FEW010 08/07 A3012 RMK AO2 SLP179 T00830067
Loading
Personal Weather Stations






























Interactive Weather Map New forecast layout! Learn more

10-Day Weather Forecast

Advertisements
Track Severe Weather on mobile